Terminal Aerodrome Forecast
Issued by NWS Memphis, TN

Home | Current Version | Previous Version | Text Only | Print | Product List | Glossary On
Versions: 1 2 3 4 5 6 7 8 9 10 11 12
461
FTUS44 KMEG 262327
TAFJBR
TAF
KJBR 262327Z 2700/2724 05005KT P6SM SCT120
     FM270300 34004KT P6SM VCSH BKN060 BKN100
     FM270500 03005KT P6SM VCSH BKN050
      TEMPO 2705/2709 5SM SHRA BKN035
     FM271200 04007KT P6SM BKN060
     FM271500 10005KT P6SM SCT060=

USA.gov is the U.S. government's official web portal to all federal, state and local government web resources and services.